Time;durP1;ratioP1;P1;durP2;ratioP2;P2;SDS_P1;SDS_P2;PMS_P1;PMS_P2;Temp;Humidity;BMP_temperature;BMP_pressure;BME280_temperature;BME280_humidity;BME280_pressure;Samples;Min_cycle;Max_cycle;Signal;HPM_P1;HPM_P2
2022/12/10 00:01:16;;;;;;;21.20;14.32;;;0.90;99.90;;;;;;5023159;28;20069;-63
2022/12/10 00:03:43;;;;;;;16.83;12.30;;;0.90;99.90;;;;;;5015865;28;20037;-67
2022/12/10 00:06:16;;;;;;;17.52;11.88;;;0.90;99.90;;;;;;5017667;28;20055;-64
2022/12/10 00:08:42;;;;;;;15.90;11.80;;;0.90;99.90;;;;;;5012618;28;20041;-63
2022/12/10 00:11:10;;;;;;;;;;;0.90;99.90;;;;;;5017546;28;20507;-64
2022/12/10 00:13:38;;;;;;;16.40;11.65;;;0.90;99.90;;;;;;5016428;28;19932;-64
2022/12/10 00:16:07;;;;;;;18.58;12.38;;;0.90;99.90;;;;;;5015773;28;20888;-64
2022/12/10 00:18:35;;;;;;;15.13;10.68;;;0.90;99.90;;;;;;5015101;28;20746;-64
2022/12/10 00:21:08;;;;;;;20.52;14.35;;;0.90;99.90;;;;;;5016181;28;20674;-64
2022/12/10 00:23:35;;;;;;;18.67;13.07;;;0.90;99.90;;;;;;5014892;28;20072;-64
2022/12/10 00:26:10;;;;;;;18.00;12.68;;;0.90;99.90;;;;;;5014982;28;20048;-64
2022/12/10 00:28:38;;;;;;;17.58;12.77;;;0.90;99.90;;;;;;5011773;28;20399;-66
2022/12/10 00:31:09;;;;;;;18.23;11.80;;;0.90;99.90;;;;;;5014995;28;20041;-64
2022/12/10 00:33:36;;;;;;;16.15;11.88;;;0.90;99.90;;;;;;5013767;28;20565;-65
2022/12/10 00:36:05;;;;;;;19.88;13.18;;;0.90;99.90;;;;;;5015913;28;20068;-63
2022/12/10 00:38:33;;;;;;;21.75;13.52;;;0.90;99.90;;;;;;5032612;28;20055;-64
2022/12/10 00:40:59;;;;;;;32.33;16.90;;;0.90;99.90;;;;;;5015721;28;20049;-63
2022/12/10 00:43:27;;;;;;;28.35;17.52;;;0.90;99.90;;;;;;5017303;28;20080;-64
2022/12/10 00:45:54;;;;;;;25.70;17.08;;;0.90;99.90;;;;;;5015729;28;20143;-64
2022/12/10 00:48:21;;;;;;;29.08;17.90;;;0.90;99.90;;;;;;5024429;28;20164;-64
2022/12/10 00:50:55;;;;;;;28.85;18.50;;;0.90;99.90;;;;;;5017034;28;20057;-65
2022/12/10 00:53:23;;;;;;;24.13;16.45;;;0.90;99.90;;;;;;5024163;28;20107;-63
2022/12/10 00:55:50;;;;;;;23.25;15.43;;;0.90;99.90;;;;;;5018142;28;20156;-65
2022/12/10 00:58:17;;;;;;;23.35;16.35;;;0.80;99.90;;;;;;5013780;28;20761;-64
2022/12/10 01:00:44;;;;;;;28.23;16.88;;;0.90;99.90;;;;;;5013021;28;20048;-63
2022/12/10 01:03:11;;;;;;;26.85;15.02;;;0.90;99.90;;;;;;5015832;28;20157;-63
2022/12/10 01:05:37;;;;;;;24.85;17.75;;;0.90;99.90;;;;;;5016952;28;20053;-64
2022/12/10 01:08:04;;;;;;;;;;;0.80;99.90;;;;;;5024359;28;20357;-63
2022/12/10 01:10:31;;;;;;;22.65;14.40;;;0.90;99.90;;;;;;5037500;28;20339;-64
2022/12/10 01:12:58;;;;;;;24.38;15.73;;;0.90;99.90;;;;;;5016079;28;20044;-64
2022/12/10 01:15:24;;;;;;;;;;;0.90;99.90;;;;;;5012077;28;20065;-64
2022/12/10 01:17:51;;;;;;;32.75;16.98;;;0.90;99.90;;;;;;5014841;28;19927;-63
2022/12/10 01:20:18;;;;;;;25.02;16.10;;;0.90;99.90;;;;;;5016983;28;20065;-64
2022/12/10 01:22:44;;;;;;;22.83;16.20;;;0.90;99.90;;;;;;5006594;28;20045;-64
2022/12/10 01:25:11;;;;;;;25.05;16.67;;;0.90;99.90;;;;;;5013591;28;20045;-65
2022/12/10 01:27:38;;;;;;;;;;;0.90;99.90;;;;;;5013803;28;20053;-64
2022/12/10 01:30:05;;;;;;;22.58;15.63;;;0.90;99.90;;;;;;5013186;28;19931;-64
2022/12/10 01:32:35;;;;;;;26.55;17.63;;;0.90;99.90;;;;;;5015815;28;20119;-65
2022/12/10 01:35:01;;;;;;;27.30;17.17;;;0.90;99.90;;;;;;5013225;28;20090;-64
2022/12/10 01:37:28;;;;;;;;;;;0.90;99.90;;;;;;5017656;28;20076;-65
2022/12/10 01:39:55;;;;;;;25.33;16.80;;;0.90;99.90;;;;;;5015473;28;20083;-65
2022/12/10 01:42:21;;;;;;;25.10;17.23;;;0.90;99.90;;;;;;5022075;28;20782;-64
2022/12/10 01:44:48;;;;;;;28.80;16.95;;;0.90;99.90;;;;;;5011968;28;20103;-63
2022/12/10 01:47:15;;;;;;;;;;;0.90;99.90;;;;;;5013967;28;20045;-64
2022/12/10 01:49:42;;;;;;;25.95;15.88;;;0.80;99.90;;;;;;5045675;28;20589;-64
2022/12/10 01:52:12;;;;;;;29.60;17.92;;;0.80;99.90;;;;;;5013046;28;20053;-63
2022/12/10 01:54:42;;;;;;;52.25;18.75;;;0.80;99.90;;;;;;5013094;28;20052;-64
2022/12/10 01:57:10;;;;;;;50.47;18.85;;;0.80;99.90;;;;;;5012556;28;20049;-64
2022/12/10 01:59:39;;;;;;;95.88;24.00;;;0.80;99.90;;;;;;5014610;28;20132;-63
2022/12/10 02:02:22;;;;;;;65.25;19.60;;;0.80;99.90;;;;;;5015611;28;20048;-63
2022/12/10 02:04:59;;;;;;;75.07;21.20;;;0.80;99.90;;;;;;5014022;28;20041;-65
2022/12/10 02:07:53;;;;;;;39.10;19.60;;;0.70;99.90;;;;;;5014111;28;20562;-64
2022/12/10 02:10:31;;;;;;;28.60;17.65;;;0.70;99.90;;;;;;5019761;28;20051;-65
2022/12/10 02:13:14;;;;;;;48.35;20.60;;;0.70;99.90;;;;;;5021943;28;20077;-65
2022/12/10 02:15:51;;;;;;;31.60;18.92;;;0.80;99.90;;;;;;5010898;28;20041;-64
2022/12/10 02:18:21;;;;;;;39.92;19.27;;;0.80;99.90;;;;;;5022756;28;20195;-64
2022/12/10 02:20:53;;;;;;;33.28;18.75;;;0.80;99.90;;;;;;5028683;28;20045;-63
2022/12/10 02:23:28;;;;;;;28.58;18.20;;;0.80;99.90;;;;;;5017788;28;20146;-64
2022/12/10 02:26:02;;;;;;;28.70;17.88;;;0.80;99.90;;;;;;5010843;28;20061;-65
2022/12/10 02:28:47;;;;;;;29.88;19.08;;;0.80;99.90;;;;;;5015880;28;20598;-64
2022/12/10 02:31:19;;;;;;;30.40;18.60;;;0.80;99.90;;;;;;5015030;28;20045;-64
2022/12/10 02:33:54;;;;;;;33.55;19.23;;;0.80;99.90;;;;;;5021245;28;20322;-65
2022/12/10 02:36:25;;;;;;;37.10;21.65;;;0.80;99.90;;;;;;5020535;28;20040;-65
2022/12/10 02:38:53;;;;;;;28.88;18.42;;;0.90;99.90;;;;;;5015234;28;20114;-64
2022/12/10 02:41:43;;;;;;;29.52;18.83;;;0.80;99.90;;;;;;5012579;28;20115;-65
2022/12/10 02:44:13;;;;;;;30.38;18.27;;;0.80;99.90;;;;;;5027369;28;20045;-64
2022/12/10 02:46:41;;;;;;;28.48;17.00;;;0.90;99.90;;;;;;5012486;28;20056;-63
2022/12/10 02:49:13;;;;;;;28.30;18.35;;;0.90;99.90;;;;;;5020584;28;20063;-65
2022/12/10 02:51:41;;;;;;;31.85;19.02;;;0.90;99.90;;;;;;5011368;28;20073;-64
2022/12/10 02:54:41;;;;;;;29.35;18.02;;;0.90;99.90;;;;;;5012064;28;20041;-63
2022/12/10 02:57:26;;;;;;;27.35;17.48;;;0.90;99.90;;;;;;5027647;28;20052;-66
2022/12/10 03:00:18;;;;;;;29.40;17.85;;;0.90;99.90;;;;;;5021185;28;20052;-64
2022/12/10 03:03:23;;;;;;;23.38;15.55;;;0.90;99.90;;;;;;5011072;28;20126;-64
2022/12/10 03:05:52;;;;;;;27.40;17.17;;;0.90;99.90;;;;;;5011868;28;20099;-64
2022/12/10 03:08:32;;;;;;;26.60;16.55;;;0.90;99.90;;;;;;5013693;28;20170;-63
2022/12/10 03:11:14;;;;;;;27.10;16.58;;;0.90;99.90;;;;;;5013066;28;20049;-64
2022/12/10 03:14:00;;;;;;;25.50;15.32;;;0.90;99.90;;;;;;5014541;28;20098;-63
2022/12/10 03:16:33;;;;;;;30.90;18.33;;;0.90;99.90;;;;;;5009447;28;20210;-63
2022/12/10 03:19:05;;;;;;;27.58;17.52;;;0.90;99.90;;;;;;5011942;28;20450;-63
2022/12/10 03:21:36;;;;;;;27.77;17.50;;;0.90;99.90;;;;;;5014051;28;20053;-64
2022/12/10 03:24:08;;;;;;;29.65;18.83;;;0.90;99.90;;;;;;5013228;28;20045;-63
2022/12/10 03:26:37;;;;;;;28.60;18.08;;;0.90;99.90;;;;;;5013971;28;20055;-63
2022/12/10 03:29:08;;;;;;;32.38;19.92;;;1.00;99.90;;;;;;5016386;28;20057;-63
2022/12/10 03:31:37;;;;;;;33.17;20.92;;;1.00;99.90;;;;;;5014626;28;20056;-64
2022/12/10 03:34:05;;;;;;;30.30;20.08;;;1.00;99.90;;;;;;5012505;28;20152;-64
2022/12/10 03:36:33;;;;;;;32.95;20.35;;;1.00;99.90;;;;;;5016921;28;20127;-63
2022/12/10 03:39:00;;;;;;;32.03;20.45;;;1.00;99.90;;;;;;5014245;28;20606;-63
2022/12/10 03:41:27;;;;;;;30.52;19.98;;;1.00;99.90;;;;;;5017441;28;20184;-66
2022/12/10 03:43:55;;;;;;;;;;;1.00;99.90;;;;;;5015038;28;20069;-63
2022/12/10 03:46:22;;;;;;;;;;;0.90;99.90;;;;;;5017044;28;20470;-64
2022/12/10 03:48:50;;;;;;;31.20;19.45;;;0.90;99.90;;;;;;5014023;28;19932;-62
2022/12/10 03:51:18;;;;;;;29.75;18.58;;;0.90;99.90;;;;;;5016207;28;20362;-64
2022/12/10 03:53:45;;;;;;;31.50;19.55;;;0.90;99.90;;;;;;5014351;28;20041;-62
2022/12/10 03:56:11;;;;;;;;;;;0.90;99.90;;;;;;5016706;28;20045;-64
2022/12/10 03:58:38;;;;;;;32.42;19.42;;;0.90;99.90;;;;;;5010496;28;19925;-63
2022/12/10 04:01:04;;;;;;;;;;;0.90;99.90;;;;;;5024618;28;20148;-63
2022/12/10 04:03:36;;;;;;;34.25;21.23;;;0.90;99.90;;;;;;5016984;28;19920;-63
2022/12/10 04:06:05;;;;;;;38.70;22.42;;;0.90;99.90;;;;;;5012799;28;20045;-63
2022/12/10 04:08:32;;;;;;;35.35;22.45;;;0.90;99.90;;;;;;5015591;28;20053;-65
2022/12/10 04:11:07;;;;;;;32.33;19.95;;;0.90;99.90;;;;;;5010763;28;20515;-65
2022/12/10 04:16:28;;;;;;;29.45;18.65;;;0.90;99.90;;;;;;5014429;28;20041;-65
2022/12/10 04:19:01;;;;;;;33.97;21.30;;;1.00;99.90;;;;;;5032360;28;20049;-65
2022/12/10 04:27:07;;;;;;;32.13;20.38;;;0.90;99.90;;;;;;5011944;28;20127;-65
2022/12/10 04:29:34;;;;;;;35.67;22.92;;;1.00;99.90;;;;;;5012754;28;20080;-65
2022/12/10 04:32:01;;;;;;;;;;;0.90;99.90;;;;;;5019451;28;20053;-66
2022/12/10 04:34:27;;;;;;;34.60;20.48;;;0.90;99.90;;;;;;5013593;28;20147;-65
2022/12/10 04:36:56;;;;;;;35.00;20.90;;;0.90;99.90;;;;;;5012423;28;20462;-63
2022/12/10 04:39:23;;;;;;;29.13;19.15;;;0.90;99.90;;;;;;5013829;28;20080;-65
2022/12/10 04:41:50;;;;;;;31.08;19.83;;;0.90;99.90;;;;;;5012752;28;20192;-64
2022/12/10 04:44:17;;;;;;;32.65;20.77;;;0.90;99.90;;;;;;5021618;28;20464;-64
2022/12/10 04:46:45;;;;;;;41.22;22.13;;;0.90;99.90;;;;;;5013286;28;20102;-65
2022/12/10 04:49:12;;;;;;;28.23;18.80;;;0.90;99.90;;;;;;5014390;28;20076;-63
2022/12/10 04:51:40;;;;;;;35.25;21.77;;;0.90;99.90;;;;;;5013404;28;20053;-63
2022/12/10 04:54:07;;;;;;;34.65;21.02;;;0.90;99.90;;;;;;5015029;28;20051;-65
2022/12/10 04:56:34;;;;;;;32.25;19.40;;;0.90;99.90;;;;;;5014640;28;20045;-66
2022/12/10 04:59:02;;;;;;;33.08;20.63;;;0.90;99.90;;;;;;5013224;28;20045;-65
2022/12/10 05:01:29;;;;;;;34.28;21.02;;;0.90;99.90;;;;;;5014241;28;20048;-63
2022/12/10 05:03:58;;;;;;;;;;;0.90;99.90;;;;;;5013437;28;20515;-65
2022/12/10 05:06:25;;;;;;;32.50;20.00;;;0.90;99.90;;;;;;5013524;28;19943;-65
2022/12/10 05:08:52;;;;;;;33.55;20.80;;;0.90;99.90;;;;;;5027199;28;20455;-65
2022/12/10 05:11:21;;;;;;;31.02;19.20;;;0.90;99.90;;;;;;5013782;28;20107;-66
2022/12/10 05:13:48;;;;;;;33.22;21.50;;;0.90;99.90;;;;;;5013658;28;20616;-66
2022/12/10 05:16:17;;;;;;;35.08;20.98;;;0.90;99.90;;;;;;5011546;28;20132;-65
2022/12/10 05:18:44;;;;;;;34.75;21.75;;;0.90;99.90;;;;;;5011670;28;20045;-65
2022/12/10 05:21:13;;;;;;;34.42;21.88;;;0.90;99.90;;;;;;5015517;28;20473;-63
2022/12/10 05:23:42;;;;;;;46.33;24.95;;;0.80;99.90;;;;;;5015096;28;20041;-64
2022/12/10 05:26:12;;;;;;;50.15;26.98;;;0.80;99.90;;;;;;5008841;28;20056;-64
2022/12/10 05:28:44;;;;;;;77.63;28.83;;;0.80;99.90;;;;;;5011307;28;20049;-65
2022/12/10 05:31:16;;;;;;;63.20;28.13;;;0.80;99.90;;;;;;5021047;28;20636;-65
2022/12/10 05:33:43;;;;;;;53.17;27.77;;;0.80;99.90;;;;;;5011465;28;20041;-63
2022/12/10 05:36:12;;;;;;;47.50;26.65;;;0.80;99.90;;;;;;5012507;28;20051;-65
2022/12/10 05:38:40;;;;;;;47.72;27.80;;;0.80;99.90;;;;;;5014053;28;20040;-64
2022/12/10 05:41:12;;;;;;;50.60;27.40;;;0.70;99.90;;;;;;5010913;28;20055;-64
2022/12/10 05:43:40;;;;;;;46.85;25.77;;;0.80;99.90;;;;;;5012404;28;20092;-64
2022/12/10 05:46:11;;;;;;;49.08;25.70;;;0.80;99.90;;;;;;5012089;28;20153;-65
2022/12/10 05:48:38;;;;;;;45.85;25.50;;;0.70;99.90;;;;;;5013845;28;20140;-64
2022/12/10 05:51:10;;;;;;;50.45;27.08;;;0.70;99.90;;;;;;5011215;28;20634;-64
2022/12/10 05:53:37;;;;;;;47.55;26.15;;;0.70;99.90;;;;;;5013375;28;20417;-65
2022/12/10 05:56:10;;;;;;;46.88;25.55;;;0.70;99.90;;;;;;5014276;28;20454;-63
2022/12/10 05:58:38;;;;;;;46.00;24.58;;;0.70;99.90;;;;;;5013416;28;20412;-64
2022/12/10 06:01:14;;;;;;;44.25;24.05;;;0.70;99.90;;;;;;5013899;28;20056;-64
2022/12/10 06:03:41;;;;;;;40.97;22.73;;;0.70;99.90;;;;;;5009909;28;20045;-64
2022/12/10 06:06:09;;;;;;;40.85;23.40;;;0.70;99.90;;;;;;5013139;28;20064;-64
2022/12/10 06:08:38;;;;;;;42.05;22.75;;;0.70;99.90;;;;;;5013751;28;20095;-65
2022/12/10 06:11:08;;;;;;;39.92;21.38;;;0.70;99.90;;;;;;5009674;28;20479;-64
2022/12/10 06:13:36;;;;;;;42.70;22.92;;;0.70;99.90;;;;;;5011409;28;20049;-64
2022/12/10 06:16:11;;;;;;;40.47;23.25;;;0.70;99.90;;;;;;5012299;28;20138;-66
2022/12/10 06:18:39;;;;;;;43.80;23.70;;;0.70;99.90;;;;;;5012779;28;20561;-65
2022/12/10 06:21:07;;;;;;;44.45;23.60;;;0.70;99.90;;;;;;5013552;28;20041;-65
2022/12/10 06:23:35;;;;;;;43.30;23.77;;;0.70;99.90;;;;;;5011999;28;20126;-64
2022/12/10 06:26:16;;;;;;;38.85;21.95;;;0.60;99.90;;;;;;5011426;28;20081;-64
2022/12/10 06:28:46;;;;;;;39.92;23.10;;;0.70;99.90;;;;;;5008501;28;20136;-66
2022/12/10 06:31:14;;;;;;;46.70;25.20;;;0.70;99.90;;;;;;5012920;28;20323;-65
2022/12/10 06:33:42;;;;;;;41.75;24.45;;;0.70;99.90;;;;;;5014210;28;20333;-65
2022/12/10 06:36:10;;;;;;;41.90;23.65;;;0.70;99.90;;;;;;5009689;28;20581;-64
2022/12/10 06:38:38;;;;;;;38.95;24.15;;;0.70;99.90;;;;;;5011906;28;20045;-64
2022/12/10 06:41:07;;;;;;;42.15;24.73;;;0.70;99.90;;;;;;5011225;28;20800;-64
2022/12/10 06:43:34;;;;;;;45.88;24.23;;;0.70;99.90;;;;;;5013451;28;20342;-64
2022/12/10 06:46:06;;;;;;;46.60;27.27;;;0.70;99.90;;;;;;5013157;28;20674;-63
2022/12/10 06:48:33;;;;;;;46.25;25.38;;;0.70;99.90;;;;;;5010325;28;20057;-62
2022/12/10 06:51:00;;;;;;;44.50;26.85;;;0.70;99.90;;;;;;5020144;28;20050;-64
2022/12/10 06:53:27;;;;;;;43.50;26.42;;;0.70;99.90;;;;;;5010069;28;20304;-64
2022/12/10 06:55:53;;;;;;;;;;;0.70;99.90;;;;;;5010974;28;20147;-64
2022/12/10 06:58:20;;;;;;;42.00;23.77;;;0.70;99.90;;;;;;5046544;28;20238;-65
2022/12/10 07:00:47;;;;;;;40.08;24.20;;;0.70;99.90;;;;;;5014584;28;20478;-63
2022/12/10 07:03:13;;;;;;;41.95;25.42;;;0.70;99.90;;;;;;5016376;28;20041;-63
2022/12/10 07:05:40;;;;;;;;;;;0.70;99.90;;;;;;5015893;28;20361;-64
2022/12/10 07:08:07;;;;;;;49.95;27.00;;;0.70;99.90;;;;;;5011915;28;19960;-64
2022/12/10 07:10:33;;;;;;;;;;;0.70;99.90;;;;;;5016328;28;20040;-64
2022/12/10 07:13:00;;;;;;;36.53;22.70;;;0.70;99.90;;;;;;5014505;28;19935;-64
2022/12/10 07:15:28;;;;;;;41.25;24.52;;;0.70;99.90;;;;;;5016706;28;20566;-64
2022/12/10 07:17:54;;;;;;;42.22;24.02;;;0.70;99.90;;;;;;5013783;28;20233;-66
2022/12/10 07:20:21;;;;;;;;;;;0.70;99.90;;;;;;5013002;28;20187;-66
2022/12/10 07:22:48;;;;;;;38.17;23.15;;;0.70;99.90;;;;;;5016234;28;20643;-63
2022/12/10 07:25:15;;;;;;;;;;;0.70;99.90;;;;;;5014097;28;20037;-63
2022/12/10 07:27:41;;;;;;;43.13;24.27;;;0.70;99.90;;;;;;5013398;28;19931;-66
2022/12/10 07:30:09;;;;;;;36.45;22.67;;;0.70;99.90;;;;;;5013046;28;20590;-64
2022/12/10 07:32:36;;;;;;;35.63;23.67;;;0.70;99.90;;;;;;5015645;28;20099;-63
2022/12/10 07:35:03;;;;;;;;;;;0.70;99.90;;;;;;5017854;28;20069;-64
2022/12/10 07:37:29;;;;;;;36.38;22.23;;;0.70;99.90;;;;;;5012280;28;20379;-62
2022/12/10 07:39:56;;;;;;;;;;;0.70;99.90;;;;;;5017526;28;20467;-63
2022/12/10 07:42:23;;;;;;;39.28;23.50;;;0.70;99.90;;;;;;5016497;28;20329;-63
2022/12/10 07:44:50;;;;;;;;;;;0.70;99.90;;;;;;5013953;28;20069;-64
2022/12/10 07:47:16;;;;;;;39.40;23.45;;;0.70;99.90;;;;;;5015157;28;20345;-65
2022/12/10 07:49:43;;;;;;;36.75;22.27;;;0.70;99.90;;;;;;5014388;28;20498;-65
2022/12/10 07:52:10;;;;;;;;;;;0.70;99.90;;;;;;5014724;28;20196;-64
2022/12/10 07:54:37;;;;;;;37.53;22.02;;;0.70;99.90;;;;;;5027727;28;20027;-65
2022/12/10 07:57:03;;;;;;;;;;;0.70;99.90;;;;;;5012741;28;20279;-64
2022/12/10 07:59:30;;;;;;;39.28;23.08;;;0.70;99.90;;;;;;5013793;28;19990;-52
2022/12/10 08:01:57;;;;;;;38.38;22.83;;;0.70;99.90;;;;;;5017001;28;20578;-55
2022/12/10 08:04:30;;;;;;;36.38;22.70;;;0.70;99.90;;;;;;5013241;28;20789;-55
2022/12/10 08:06:56;;;;;;;37.80;21.75;;;0.80;99.90;;;;;;5013695;28;20080;-53
2022/12/10 08:09:23;;;;;;;;;;;0.80;99.90;;;;;;5013041;28;20055;-54
2022/12/10 08:11:50;;;;;;;35.30;20.42;;;0.80;99.90;;;;;;5014860;28;19979;-53
2022/12/10 08:14:16;;;;;;;;;;;0.80;99.90;;;;;;5012566;28;20056;-53
2022/12/10 08:16:43;;;;;;;36.30;22.33;;;0.80;99.90;;;;;;5012158;28;19925;-51
2022/12/10 08:19:10;;;;;;;;;;;0.80;99.90;;;;;;5007097;28;20046;-53
2022/12/10 08:21:44;;;;;;;37.80;20.95;;;0.90;99.90;;;;;;4997151;28;22035;-53
2022/12/10 08:24:11;;;;;;;39.10;24.15;;;0.90;99.90;;;;;;4998141;28;20091;-54
2022/12/10 08:26:38;;;;;;;;;;;0.80;99.90;;;;;;5001953;28;20072;-53
2022/12/10 08:29:05;;;;;;;41.75;22.73;;;0.80;99.90;;;;;;5012391;28;20294;-54
2022/12/10 08:31:31;;;;;;;;;;;0.80;99.90;;;;;;5012838;28;20051;-54
2022/12/10 08:34:04;;;;;;;31.58;18.90;;;0.90;99.90;;;;;;5013145;28;20018;-54
2022/12/10 08:36:31;;;;;;;35.90;21.75;;;0.80;99.90;;;;;;5012636;28;20514;-52
2022/12/10 08:38:58;;;;;;;;;;;0.90;99.90;;;;;;5013006;28;20049;-54
2022/12/10 08:41:25;;;;;;;37.10;22.17;;;0.90;99.90;;;;;;5010295;28;19924;-54
2022/12/10 08:43:52;;;;;;;;;;;0.90;99.90;;;;;;5011545;28;20055;-55
2022/12/10 08:46:19;;;;;;;45.80;23.90;;;0.80;99.90;;;;;;5013126;28;19951;-53
2022/12/10 08:48:46;;;;;;;36.88;20.90;;;0.80;99.90;;;;;;5015060;28;20632;-54
2022/12/10 08:51:15;;;;;;;;;;;0.90;99.90;;;;;;5013617;28;20633;-53
2022/12/10 08:53:42;;;;;;;44.42;23.90;;;0.90;99.90;;;;;;5009079;28;19928;-55
2022/12/10 08:56:09;;;;;;;42.45;24.00;;;0.90;99.90;;;;;;5014069;28;20045;-54
2022/12/10 08:58:36;;;;;;;;;;;0.90;99.90;;;;;;5012545;28;20132;-53
2022/12/10 09:01:08;;;;;;;45.50;23.63;;;0.80;99.90;;;;;;5014642;28;19952;-52
2022/12/10 09:03:36;;;;;;;42.10;22.63;;;0.90;99.90;;;;;;5013972;28;20118;-54
2022/12/10 09:06:05;;;;;;;43.55;22.52;;;0.90;99.90;;;;;;5013433;28;20276;-51
2022/12/10 09:08:32;;;;;;;44.90;24.48;;;0.90;99.90;;;;;;4994204;28;20546;-52
2022/12/10 09:11:08;;;;;;;42.60;23.23;;;0.90;99.90;;;;;;5005783;28;20041;-52
2022/12/10 09:13:35;;;;;;;42.85;22.83;;;0.90;99.90;;;;;;5014907;28;20056;-51
2022/12/10 09:16:02;;;;;;;42.72;22.65;;;0.90;99.90;;;;;;5013303;28;20049;-52
2022/12/10 09:18:30;;;;;;;48.42;26.05;;;0.90;99.90;;;;;;5010435;28;20664;-54
2022/12/10 09:20:56;;;;;;;44.53;23.80;;;0.90;99.90;;;;;;5013332;28;20040;-54
2022/12/10 09:23:23;;;;;;;45.38;23.08;;;0.90;99.90;;;;;;5010443;28;20134;-52
2022/12/10 09:25:50;;;;;;;41.78;22.73;;;0.90;99.90;;;;;;5011535;28;20052;-52
2022/12/10 09:28:17;;;;;;;39.05;21.17;;;0.90;99.90;;;;;;5011265;28;20369;-52
2022/12/10 09:30:44;;;;;;;;;;;0.90;99.90;;;;;;5018287;28;20047;-52
2022/12/10 09:33:11;;;;;;;45.05;24.27;;;0.90;99.90;;;;;;5010776;28;19952;-51
2022/12/10 09:35:41;;;;;;;;;;;0.90;99.90;;;;;;5015321;28;20399;-52
2022/12/10 09:38:10;;;;;;;44.75;24.15;;;0.90;99.90;;;;;;5014536;28;20027;-52
2022/12/10 09:40:43;;;;;;;;;;;0.90;99.90;;;;;;5010809;28;20055;-50
2022/12/10 09:43:26;;;;;;;38.17;20.95;;;1.00;99.90;;;;;;5012144;28;19932;-53
2022/12/10 09:46:21;;;;;;;37.75;21.25;;;0.90;99.90;;;;;;5013038;28;20184;-53
2022/12/10 09:49:11;;;;;;;42.35;20.60;;;1.00;99.90;;;;;;5010476;28;20423;-52
2022/12/10 09:51:38;;;;;;;39.15;21.33;;;1.00;99.90;;;;;;5009422;28;20480;-54
2022/12/10 09:54:22;;;;;;;34.05;19.73;;;1.00;99.90;;;;;;5012725;28;20498;-53
2022/12/10 09:56:51;;;;;;;34.08;18.65;;;1.00;99.90;;;;;;5011390;28;20487;-53
2022/12/10 09:59:23;;;;;;;31.13;16.67;;;1.00;99.90;;;;;;5011057;28;20452;-54
2022/12/10 10:02:20;;;;;;;34.50;19.25;;;1.00;99.90;;;;;;5013161;28;20045;-54
2022/12/10 10:04:49;;;;;;;30.48;17.17;;;1.00;99.90;;;;;;5008221;28;20156;-53
2022/12/10 10:07:29;;;;;;;31.60;16.65;;;1.00;99.90;;;;;;5014515;28;20080;-54
2022/12/10 10:10:27;;;;;;;26.23;15.48;;;1.00;99.90;;;;;;5021326;28;20880;-54
2022/12/10 10:12:58;;;;;;;22.98;13.55;;;1.00;99.90;;;;;;5012921;28;20049;-53
2022/12/10 10:15:30;;;;;;;25.05;13.63;;;1.10;99.90;;;;;;5013719;28;20076;-52
2022/12/10 10:18:00;;;;;;;25.70;14.18;;;1.10;99.90;;;;;;5013916;28;20045;-53
2022/12/10 10:20:27;;;;;;;22.17;13.25;;;1.10;99.90;;;;;;5010905;28;20053;-58
2022/12/10 10:22:55;;;;;;;;;;;1.10;99.90;;;;;;5013991;28;20209;-54
2022/12/10 10:25:22;;;;;;;;;;;1.10;99.90;;;;;;5044546;28;19925;-50
2022/12/10 10:27:48;;;;;;;20.65;12.95;;;1.20;99.90;;;;;;5011680;28;19920;-52
2022/12/10 10:30:17;;;;;;;;;;;1.20;99.90;;;;;;5014253;28;20151;-56
2022/12/10 10:32:53;;;;;;;19.58;11.50;;;1.20;99.90;;;;;;5007758;28;20542;-53
2022/12/10 10:35:42;;;;;;;20.05;11.70;;;1.20;99.90;;;;;;5021005;28;20387;-53
2022/12/10 10:38:36;;;;;;;22.35;12.30;;;1.20;99.90;;;;;;5010012;28;20657;-53
2022/12/10 10:41:04;;;;;;;17.20;11.02;;;1.20;99.90;;;;;;5012143;28;20591;-52
2022/12/10 10:43:44;;;;;;;18.27;11.43;;;1.20;99.90;;;;;;5012601;28;20068;-55
2022/12/10 10:46:11;;;;;;;19.05;11.73;;;1.20;99.90;;;;;;5009989;28;20045;-54
2022/12/10 10:48:38;;;;;;;;;;;1.20;99.90;;;;;;5011773;28;20056;-52
2022/12/10 10:51:15;;;;;;;15.85;10.27;;;1.20;99.90;;;;;;5011799;28;19925;-54
2022/12/10 10:53:43;;;;;;;19.58;12.13;;;1.30;99.90;;;;;;5011166;28;20818;-52
2022/12/10 10:56:18;;;;;;;21.80;12.80;;;1.30;99.90;;;;;;5009891;28;20050;-52
2022/12/10 10:58:50;;;;;;;19.48;12.82;;;1.30;99.90;;;;;;5006902;28;20120;-54
2022/12/10 11:01:17;;;;;;;20.77;13.05;;;1.30;99.90;;;;;;5008672;28;20057;-55
2022/12/10 11:03:50;;;;;;;18.85;11.93;;;1.30;99.90;;;;;;5011201;28;20037;-54
2022/12/10 11:06:17;;;;;;;22.30;13.93;;;1.30;99.90;;;;;;5009561;28;20037;-53
2022/12/10 11:08:46;;;;;;;20.90;12.52;;;1.40;99.90;;;;;;5011906;28;20096;-55
2022/12/10 11:11:35;;;;;;;19.08;12.00;;;1.40;99.90;;;;;;5013182;28;20064;-54
2022/12/10 11:14:32;;;;;;;18.65;11.48;;;1.40;99.90;;;;;;5005419;28;20068;-53
2022/12/10 11:17:12;;;;;;;17.67;11.15;;;1.40;99.90;;;;;;5011274;28;20276;-56
2022/12/10 11:19:52;;;;;;;17.58;11.60;;;1.40;99.90;;;;;;5009234;28;20103;-52
2022/12/10 11:22:23;;;;;;;15.90;10.88;;;1.40;99.90;;;;;;5010836;28;20183;-54
2022/12/10 11:24:50;;;;;;;14.35;10.27;;;1.40;99.90;;;;;;5012968;28;20375;-52
2022/12/10 11:27:34;;;;;;;17.67;11.45;;;1.40;99.90;;;;;;5010431;28;20048;-55
2022/12/10 11:30:06;;;;;;;20.58;12.38;;;1.40;99.90;;;;;;5012143;28;20072;-52
2022/12/10 11:32:59;;;;;;;18.20;11.52;;;1.40;99.90;;;;;;5017808;28;20052;-54
2022/12/10 11:35:43;;;;;;;20.38;11.27;;;1.40;99.90;;;;;;5011207;28;20164;-52
2022/12/10 11:38:16;;;;;;;19.73;12.48;;;1.40;99.90;;;;;;5011707;28;20596;-50
2022/12/10 11:41:16;;;;;;;22.30;13.75;;;1.40;99.90;;;;;;5011795;28;20399;-50
2022/12/10 11:44:25;;;;;;;21.20;13.23;;;1.40;99.90;;;;;;5014451;28;20387;-50
2022/12/10 11:46:55;;;;;;;20.73;12.27;;;1.30;99.90;;;;;;5013582;28;20241;-52
2022/12/10 11:49:25;;;;;;;22.52;14.02;;;1.30;99.90;;;;;;5049292;28;20063;-51
2022/12/10 11:52:20;;;;;;;20.40;12.82;;;1.30;99.90;;;;;;5011765;28;20061;-54
2022/12/10 11:55:11;;;;;;;18.58;12.30;;;1.30;99.90;;;;;;5030221;28;20126;-52
2022/12/10 11:57:56;;;;;;;18.63;11.70;;;1.20;99.90;;;;;;5022542;28;20120;-51
2022/12/10 12:00:27;;;;;;;21.67;13.77;;;1.20;99.90;;;;;;5015086;28;20264;-52
2022/12/10 12:03:15;;;;;;;17.85;12.35;;;1.30;99.90;;;;;;5022509;28;20581;-52
2022/12/10 12:06:14;;;;;;;20.02;13.43;;;1.30;99.90;;;;;;5012280;28;20037;-52
2022/12/10 12:09:01;;;;;;;20.75;12.70;;;1.30;99.90;;;;;;5012414;28;20057;-54
2022/12/10 12:11:45;;;;;;;16.92;11.27;;;1.30;99.90;;;;;;5014344;28;20416;-52
2022/12/10 12:14:35;;;;;;;20.90;13.35;;;1.30;99.90;;;;;;5011525;28;20565;-53
2022/12/10 12:17:11;;;;;;;18.30;12.95;;;1.30;99.90;;;;;;5014366;28;20359;-52
2022/12/10 12:19:43;;;;;;;19.67;13.55;;;1.30;99.90;;;;;;5014526;28;20502;-53
2022/12/10 12:22:32;;;;;;;19.63;12.93;;;1.30;99.90;;;;;;5011559;28;20164;-54
2022/12/10 12:25:20;;;;;;;22.23;14.60;;;1.30;99.90;;;;;;5014942;28;20131;-52
2022/12/10 12:27:56;;;;;;;22.75;13.65;;;1.30;99.90;;;;;;5015163;28;20099;-53
2022/12/10 12:30:23;;;;;;;23.77;15.85;;;1.30;99.90;;;;;;5013363;28;20354;-49
2022/12/10 12:32:56;;;;;;;24.08;15.50;;;1.20;99.90;;;;;;5014703;28;20045;-49
2022/12/10 12:35:36;;;;;;;23.20;16.15;;;1.20;99.90;;;;;;5003203;28;20296;-53
2022/12/10 12:38:27;;;;;;;22.75;15.43;;;1.30;99.90;;;;;;5013541;28;20430;-52
2022/12/10 12:40:57;;;;;;;21.20;13.98;;;1.20;99.90;;;;;;5012067;28;20051;-52
2022/12/10 12:43:36;;;;;;;25.75;16.92;;;1.20;99.90;;;;;;5012046;28;20046;-51
2022/12/10 12:46:21;;;;;;;22.80;15.48;;;1.30;99.90;;;;;;5015416;28;20124;-52
2022/12/10 12:49:01;;;;;;;21.95;15.38;;;1.30;99.90;;;;;;5012823;28;20057;-53
2022/12/10 12:51:59;;;;;;;22.05;14.95;;;1.20;99.90;;;;;;5012904;28;20593;-51
2022/12/10 12:54:26;;;;;;;23.42;15.38;;;1.20;99.90;;;;;;5010873;28;20065;-52
2022/12/10 12:56:55;;;;;;;;;;;1.10;99.90;;;;;;5012180;28;20075;-53
2022/12/10 12:59:38;;;;;;;;;;;1.10;99.90;;;;;;5011922;28;20240;-52
2022/12/10 13:02:31;;;;;;;;;;;1.00;99.90;;;;;;5013558;28;20050;-52
2022/12/10 13:05:00;;;;;;;;;;;1.00;99.90;;;;;;5044063;28;20295;-52
2022/12/10 13:07:31;;;;;;;;;;;0.90;99.90;;;;;;5021585;28;20242;-50
2022/12/10 13:10:14;;;;;;;;;;;0.90;99.90;;;;;;5003236;28;19932;-51
2022/12/10 13:12:40;;;;;;;;;;;0.80;99.90;;;;;;5012738;28;19924;-50
2022/12/10 13:15:16;;;;;;;;;;;0.80;99.90;;;;;;5013157;28;20175;-53
2022/12/10 13:18:00;;;;;;;;;;;0.80;99.90;;;;;;5013773;28;19924;-51
2022/12/10 13:20:27;;;;;;;;;;;0.70;99.90;;;;;;5012271;28;19935;-50
2022/12/10 13:22:55;;;;;;;;;;;0.70;99.90;;;;;;5014877;28;19929;-52
2022/12/10 13:25:37;;;;;;;;;;;0.70;99.90;;;;;;5012279;28;20016;-54